createdAt,value
2022-07-29T00:01:44.461Z,8.10
2022-07-29T00:04:14.279Z,7.80
2022-07-29T00:06:43.133Z,6.80
2022-07-29T00:09:11.721Z,7.10
2022-07-29T00:11:40.238Z,8.40
2022-07-29T00:14:09.549Z,8.00
2022-07-29T00:16:38.274Z,6.50
2022-07-29T00:19:07.833Z,6.40
2022-07-29T00:21:36.521Z,7.20
2022-07-29T00:24:05.355Z,7.10
2022-07-29T00:26:33.847Z,10.70
2022-07-29T00:31:53.496Z,11.40
2022-07-29T00:34:40.434Z,10.30
2022-07-29T00:37:09.001Z,7.30
2022-07-29T00:39:37.395Z,11.00
2022-07-29T00:42:06.568Z,14.40
2022-07-29T00:44:44.396Z,8.50
2022-07-29T00:47:13.785Z,7.70
2022-07-29T00:49:43.890Z,9.10
2022-07-29T00:52:16.797Z,10.80
2022-07-29T00:54:45.942Z,10.30
2022-07-29T00:57:14.670Z,8.30
2022-07-29T00:59:43.092Z,11.30
2022-07-29T01:02:12.217Z,7.20
2022-07-29T01:04:42.103Z,7.20
2022-07-29T01:07:12.184Z,8.60
2022-07-29T01:09:46.063Z,6.30
2022-07-29T01:12:20.388Z,12.00
2022-07-29T01:14:51.380Z,10.30
2022-07-29T01:17:19.693Z,7.50
2022-07-29T01:20:02.889Z,10.70
2022-07-29T01:23:07.915Z,8.40
2022-07-29T01:26:07.087Z,8.30
2022-07-29T01:29:07.506Z,7.20
2022-07-29T01:32:05.512Z,6.70
2022-07-29T01:34:55.595Z,6.50
2022-07-29T01:37:31.007Z,7.10
2022-07-29T01:40:03.370Z,7.10
2022-07-29T01:42:46.511Z,7.40
2022-07-29T01:45:44.664Z,7.00
2022-07-29T01:48:48.463Z,9.80
2022-07-29T01:51:28.955Z,6.30
2022-07-29T01:54:12.479Z,8.20
2022-07-29T01:56:44.165Z,6.20
2022-07-29T01:59:13.072Z,8.40
2022-07-29T02:01:45.332Z,6.80
2022-07-29T02:04:29.897Z,7.10
2022-07-29T02:07:05.485Z,5.60
2022-07-29T02:09:37.649Z,7.80
2022-07-29T02:12:08.454Z,6.30
2022-07-29T02:14:45.066Z,6.50
2022-07-29T02:17:16.993Z,7.10
2022-07-29T02:19:47.219Z,10.00
2022-07-29T02:22:19.731Z,10.60
2022-07-29T02:24:50.582Z,5.40
2022-07-29T02:27:21.719Z,9.20
2022-07-29T02:29:52.797Z,7.40
2022-07-29T02:32:23.926Z,11.40
2022-07-29T02:34:54.250Z,7.90
2022-07-29T02:37:23.362Z,9.10
2022-07-29T02:39:55.041Z,8.10
2022-07-29T02:44:54.038Z,7.40
2022-07-29T02:47:45.000Z,8.30
2022-07-29T02:50:31.109Z,9.70
2022-07-29T02:53:01.447Z,7.50
2022-07-29T02:55:35.146Z,7.40
2022-07-29T02:58:12.364Z,9.10
2022-07-29T03:00:43.711Z,7.00
2022-07-29T03:03:22.414Z,13.70
2022-07-29T03:05:56.159Z,10.10
2022-07-29T03:08:25.674Z,6.70
2022-07-29T03:10:54.761Z,9.70
2022-07-29T03:13:24.027Z,8.80
2022-07-29T03:15:53.590Z,8.50
2022-07-29T03:18:22.405Z,7.30
2022-07-29T03:20:51.140Z,7.20
2022-07-29T03:23:21.959Z,6.60
2022-07-29T03:25:52.012Z,9.20
2022-07-29T03:28:21.179Z,8.70
2022-07-29T03:30:51.356Z,6.80
2022-07-29T03:33:19.963Z,9.00
2022-07-29T03:35:48.715Z,9.10
2022-07-29T03:38:17.314Z,6.40
2022-07-29T03:40:52.717Z,10.70
2022-07-29T03:43:22.738Z,6.80
2022-07-29T03:45:56.160Z,9.20
2022-07-29T03:48:27.728Z,8.80
2022-07-29T03:50:57.063Z,8.10
2022-07-29T03:53:25.808Z,7.40
2022-07-29T03:56:00.826Z,9.10
2022-07-29T03:58:33.112Z,7.80
2022-07-29T04:01:02.026Z,8.60
2022-07-29T04:03:31.242Z,6.60
2022-07-29T04:06:07.386Z,6.20
2022-07-29T04:08:36.160Z,6.40
2022-07-29T04:11:05.887Z,10.50
2022-07-29T04:13:34.506Z,7.00
2022-07-29T04:16:03.280Z,9.00
2022-07-29T04:18:32.065Z,6.20
2022-07-29T04:21:02.083Z,5.70
2022-07-29T04:23:34.542Z,10.80
2022-07-29T04:26:03.148Z,6.90
2022-07-29T04:28:31.570Z,7.20
2022-07-29T04:31:00.078Z,8.20
2022-07-29T04:33:28.805Z,8.20
2022-07-29T04:35:58.528Z,7.20
2022-07-29T04:38:27.754Z,10.90
2022-07-29T04:40:56.477Z,7.70
2022-07-29T04:43:25.538Z,8.50
2022-07-29T04:45:55.556Z,12.00
2022-07-29T04:48:28.485Z,11.50
2022-07-29T04:50:57.988Z,10.70
2022-07-29T04:53:27.617Z,10.10
2022-07-29T04:55:56.540Z,10.50
2022-07-29T04:58:25.317Z,11.30
2022-07-29T05:00:54.088Z,8.90
2022-07-29T05:03:22.725Z,9.60
2022-07-29T05:05:51.225Z,12.80
2022-07-29T05:08:19.850Z,14.40
2022-07-29T05:10:48.475Z,18.20
2022-07-29T05:13:17.303Z,22.50
2022-07-29T05:15:45.893Z,17.70
2022-07-29T05:18:15.522Z,13.80
2022-07-29T05:20:47.740Z,14.80
2022-07-29T05:23:19.313Z,12.60
2022-07-29T05:25:50.123Z,10.50
2022-07-29T05:28:18.802Z,9.90
2022-07-29T05:30:47.868Z,12.00
2022-07-29T05:33:35.296Z,12.00
2022-07-29T05:36:08.155Z,9.60
2022-07-29T05:38:38.059Z,9.00
2022-07-29T05:41:07.009Z,9.70
2022-07-29T05:43:35.624Z,9.50
2022-07-29T05:46:04.414Z,9.30
2022-07-29T05:48:34.433Z,11.20
2022-07-29T05:51:03.569Z,9.80
2022-07-29T05:53:32.166Z,9.50
2022-07-29T05:56:08.433Z,12.00
2022-07-29T05:58:37.509Z,10.60
2022-07-29T06:01:06.745Z,12.10
2022-07-29T06:03:35.831Z,8.00
2022-07-29T06:06:08.508Z,7.90
2022-07-29T06:08:38.127Z,10.00
2022-07-29T06:11:06.943Z,10.10
2022-07-29T06:13:36.577Z,8.10
2022-07-29T06:16:05.696Z,7.10
2022-07-29T06:18:38.170Z,9.40
2022-07-29T06:21:13.444Z,8.60
2022-07-29T06:23:42.017Z,8.70
2022-07-29T06:26:10.516Z,10.20
2022-07-29T06:28:41.707Z,8.10
2022-07-29T06:31:13.871Z,9.80
2022-07-29T06:33:42.359Z,13.70
2022-07-29T06:36:10.926Z,9.40
2022-07-29T06:38:44.886Z,9.70
2022-07-29T06:41:18.662Z,11.10
2022-07-29T06:43:52.181Z,7.20
2022-07-29T06:46:24.527Z,7.00
2022-07-29T06:48:53.552Z,7.00
2022-07-29T06:51:23.917Z,7.20
2022-07-29T06:53:59.344Z,8.30
2022-07-29T06:56:39.635Z,7.50
2022-07-29T06:59:11.380Z,6.60
2022-07-29T07:01:44.020Z,5.70
2022-07-29T07:04:15.101Z,6.60
2022-07-29T07:06:46.609Z,5.70
2022-07-29T07:09:15.436Z,6.90
2022-07-29T07:11:43.911Z,5.70
2022-07-29T07:14:12.561Z,5.90
2022-07-29T07:16:41.361Z,5.60
2022-07-29T07:19:10.304Z,4.90
2022-07-29T07:21:39.092Z,5.60
2022-07-29T07:24:07.928Z,7.30
2022-07-29T07:26:36.902Z,7.70
2022-07-29T07:29:05.538Z,8.50
2022-07-29T07:31:34.484Z,9.10
2022-07-29T07:34:02.969Z,8.70
2022-07-29T07:36:34.614Z,7.40
2022-07-29T07:39:04.702Z,10.10
2022-07-29T07:41:33.350Z,7.80
2022-07-29T07:44:01.876Z,6.80
2022-07-29T07:46:31.918Z,9.20
2022-07-29T07:49:04.307Z,6.60
2022-07-29T07:51:32.791Z,7.70
2022-07-29T07:54:01.824Z,8.00
2022-07-29T07:56:35.135Z,6.80
2022-07-29T07:59:04.063Z,6.10
2022-07-29T08:01:48.099Z,6.70
2022-07-29T08:04:27.035Z,5.80
2022-07-29T08:06:58.972Z,5.10
2022-07-29T08:09:30.540Z,6.60
2022-07-29T08:12:00.407Z,5.70
2022-07-29T08:14:29.834Z,7.20
2022-07-29T08:16:59.419Z,8.10
2022-07-29T08:19:28.488Z,7.40
2022-07-29T08:21:57.003Z,7.80
2022-07-29T08:24:43.694Z,6.60
2022-07-29T08:27:27.239Z,7.40
2022-07-29T08:30:00.833Z,8.20
2022-07-29T08:32:51.283Z,8.40
2022-07-29T08:35:17.987Z,6.30
2022-07-29T08:37:46.690Z,8.60
2022-07-29T08:40:15.543Z,8.00
2022-07-29T08:42:44.100Z,6.70
2022-07-29T08:45:13.455Z,9.40
2022-07-29T08:47:41.975Z,8.20
2022-07-29T08:50:11.843Z,6.00
2022-07-29T08:52:42.215Z,6.00
2022-07-29T08:55:11.938Z,8.10
2022-07-29T08:57:49.628Z,5.90
2022-07-29T09:00:24.309Z,6.40
2022-07-29T09:03:00.287Z,5.80
2022-07-29T09:05:29.393Z,5.80
2022-07-29T09:07:57.907Z,6.30
2022-07-29T09:10:26.942Z,6.00
2022-07-29T09:12:56.481Z,7.00
2022-07-29T09:15:25.985Z,7.20
2022-07-29T09:17:54.496Z,6.90
2022-07-29T09:20:24.149Z,5.00
2022-07-29T09:22:54.623Z,5.70
2022-07-29T09:25:40.461Z,4.00
2022-07-29T09:28:17.731Z,5.30
2022-07-29T09:30:57.977Z,5.30
2022-07-29T09:33:40.217Z,7.10
2022-07-29T09:36:12.573Z,7.60
2022-07-29T09:38:41.183Z,6.40
2022-07-29T09:41:11.224Z,7.70
2022-07-29T09:43:40.552Z,6.10
2022-07-29T09:46:14.444Z,4.80
2022-07-29T09:48:42.978Z,5.50
2022-07-29T09:51:26.712Z,4.90
2022-07-29T09:53:58.441Z,6.40
2022-07-29T09:56:43.046Z,6.70
2022-07-29T09:59:13.212Z,8.80
2022-07-29T10:01:43.175Z,7.20
2022-07-29T10:04:11.633Z,8.00
2022-07-29T10:07:05.179Z,7.40
2022-07-29T10:09:34.881Z,6.50
2022-07-29T10:12:14.887Z,8.40
2022-07-29T10:14:44.488Z,7.40
2022-07-29T10:17:13.272Z,8.50
2022-07-29T10:19:44.944Z,5.70
2022-07-29T10:24:43.685Z,12.00
2022-07-29T10:27:14.993Z,10.20
2022-07-29T10:29:43.661Z,7.80
2022-07-29T10:32:53.969Z,7.60
2022-07-29T10:35:42.433Z,8.50
2022-07-29T10:38:48.906Z,9.10
2022-07-29T10:41:47.690Z,9.40
2022-07-29T10:44:23.764Z,10.60
2022-07-29T10:46:54.696Z,10.60
2022-07-29T10:49:27.251Z,15.80
2022-07-29T10:52:11.931Z,8.90
2022-07-29T10:54:54.783Z,13.40
2022-07-29T11:00:33.233Z,7.70
2022-07-29T11:03:04.771Z,7.80
2022-07-29T11:05:59.551Z,7.10
2022-07-29T11:08:28.955Z,6.00
2022-07-29T11:11:20.193Z,8.70
2022-07-29T11:13:54.375Z,6.30
2022-07-29T11:16:25.164Z,5.90
2022-07-29T11:19:15.880Z,7.30
2022-07-29T11:21:58.292Z,5.40
2022-07-29T11:24:32.275Z,7.50
2022-07-29T11:27:18.172Z,7.90
2022-07-29T11:29:48.327Z,7.10
2022-07-29T11:32:22.674Z,6.80
2022-07-29T11:35:19.338Z,5.60
2022-07-29T11:38:31.842Z,5.90
2022-07-29T11:41:19.022Z,7.50
2022-07-29T11:43:52.299Z,6.70
2022-07-29T11:46:50.666Z,8.10
2022-07-29T11:49:31.943Z,7.20
2022-07-29T11:52:02.895Z,7.90
2022-07-29T11:57:36.163Z,7.30
2022-07-29T12:00:12.332Z,10.50
2022-07-29T12:02:48.436Z,9.90
2022-07-29T12:05:36.019Z,8.20
2022-07-29T12:08:15.096Z,8.00
2022-07-29T12:10:44.388Z,11.30
2022-07-29T12:13:14.640Z,9.90
2022-07-29T12:15:46.009Z,9.70
2022-07-29T12:18:18.742Z,9.60
2022-07-29T12:20:49.219Z,10.20
2022-07-29T12:23:18.918Z,10.20
2022-07-29T12:25:49.683Z,9.20
2022-07-29T12:28:26.963Z,13.70
2022-07-29T12:30:56.394Z,7.40
2022-07-29T12:33:28.587Z,8.80
2022-07-29T12:36:07.282Z,5.70
2022-07-29T12:38:37.047Z,6.30
2022-07-29T12:41:05.633Z,6.30
2022-07-29T12:43:34.383Z,6.70
2022-07-29T12:46:15.199Z,5.00
2022-07-29T12:48:45.505Z,6.50
2022-07-29T12:51:15.628Z,5.40
2022-07-29T12:54:16.511Z,5.80
2022-07-29T12:56:46.262Z,4.50
2022-07-29T12:59:20.075Z,6.70
2022-07-29T13:01:52.227Z,4.50
2022-07-29T13:04:27.921Z,5.00
2022-07-29T13:07:05.276Z,6.50
2022-07-29T13:09:46.512Z,7.00
2022-07-29T13:12:15.826Z,5.60
2022-07-29T13:14:50.184Z,4.70
2022-07-29T13:17:24.286Z,5.80
2022-07-29T13:20:06.389Z,6.60
2022-07-29T13:22:37.487Z,5.80
2022-07-29T13:25:07.733Z,5.30
2022-07-29T13:27:39.506Z,5.50
2022-07-29T13:30:10.495Z,4.60
2022-07-29T13:32:39.018Z,8.40
2022-07-29T13:35:09.689Z,5.00
2022-07-29T13:37:41.374Z,5.20
2022-07-29T13:52:17.075Z,5.50
2022-07-29T13:54:45.666Z,5.00
2022-07-29T13:57:15.469Z,6.20
2022-07-29T13:59:48.362Z,6.90
2022-07-29T14:02:19.540Z,4.60
2022-07-29T14:04:48.654Z,6.90
2022-07-29T14:07:17.282Z,6.00
2022-07-29T14:09:45.865Z,4.60
2022-07-29T14:12:14.874Z,9.00
2022-07-29T14:14:43.772Z,6.10
2022-07-29T14:17:12.674Z,6.30
2022-07-29T14:19:41.286Z,5.90
2022-07-29T14:22:11.149Z,4.30
2022-07-29T14:24:40.616Z,5.30
2022-07-29T14:27:09.786Z,9.20
2022-07-29T14:29:39.471Z,6.00
2022-07-29T14:32:08.915Z,5.10
2022-07-29T14:34:45.650Z,5.00
2022-07-29T14:37:20.486Z,5.50
2022-07-29T14:39:49.896Z,4.40
2022-07-29T14:42:18.421Z,8.00
2022-07-29T14:44:47.042Z,4.70
2022-07-29T14:47:15.972Z,7.90
2022-07-29T14:49:44.425Z,8.40
2022-07-29T14:52:13.105Z,6.20
2022-07-29T14:54:41.733Z,4.70
2022-07-29T14:57:10.263Z,4.20
2022-07-29T14:59:38.774Z,4.00
2022-07-29T15:02:07.290Z,5.50
2022-07-29T15:04:35.890Z,8.60
2022-07-29T15:07:05.188Z,6.00
2022-07-29T15:09:40.332Z,6.30
2022-07-29T15:12:18.964Z,25.90
2022-07-29T15:14:49.931Z,9.40
2022-07-29T15:17:18.500Z,11.20
2022-07-29T15:19:47.920Z,9.80
2022-07-29T15:22:16.407Z,5.30
2022-07-29T15:24:45.569Z,7.20
2022-07-29T15:27:15.220Z,6.00
2022-07-29T15:29:45.152Z,5.70
2022-07-29T15:32:13.722Z,5.00
2022-07-29T15:34:42.721Z,5.30
2022-07-29T15:37:12.507Z,6.60
2022-07-29T15:39:41.005Z,5.50
2022-07-29T15:42:09.530Z,5.60
2022-07-29T15:44:38.359Z,14.80
2022-07-29T15:47:07.638Z,7.20
2022-07-29T15:49:48.026Z,7.30
2022-07-29T15:52:25.506Z,8.30
2022-07-29T15:54:56.971Z,5.60
2022-07-29T15:57:29.951Z,4.70
2022-07-29T15:59:58.590Z,5.30
2022-07-29T16:02:27.308Z,6.10
2022-07-29T16:04:55.948Z,6.90
2022-07-29T16:07:25.409Z,6.10
2022-07-29T16:10:00.253Z,8.30
2022-07-29T16:12:28.826Z,7.40
2022-07-29T16:14:57.780Z,7.20
2022-07-29T16:17:27.980Z,8.80
2022-07-29T16:19:56.738Z,8.00
2022-07-29T16:22:25.431Z,7.30
2022-07-29T16:24:53.949Z,8.60
2022-07-29T16:27:35.348Z,7.10
2022-07-29T16:30:10.874Z,10.00
2022-07-29T16:32:41.989Z,6.80
2022-07-29T16:35:12.082Z,8.40
2022-07-29T16:37:43.798Z,10.60
2022-07-29T16:40:13.139Z,7.90
2022-07-29T16:42:46.971Z,8.50
2022-07-29T16:45:18.069Z,8.10
2022-07-29T16:47:51.115Z,8.70
2022-07-29T16:50:20.243Z,10.10
2022-07-29T16:52:49.227Z,8.80
2022-07-29T16:55:17.960Z,9.20
2022-07-29T16:57:47.263Z,8.90
2022-07-29T17:00:17.778Z,7.50
2022-07-29T17:02:46.671Z,7.50
2022-07-29T17:05:16.270Z,8.80
2022-07-29T17:07:44.874Z,7.30
2022-07-29T17:10:13.606Z,8.80
2022-07-29T17:12:44.327Z,6.70
2022-07-29T17:15:14.292Z,7.70
2022-07-29T17:17:54.776Z,8.30
2022-07-29T17:20:26.909Z,5.90
2022-07-29T17:22:55.674Z,6.60
2022-07-29T17:25:25.204Z,8.60
2022-07-29T17:28:00.561Z,9.80
2022-07-29T17:30:30.319Z,12.40
2022-07-29T17:32:59.146Z,10.30
2022-07-29T17:35:46.087Z,10.10
2022-07-29T17:38:14.690Z,12.00
2022-07-29T17:40:43.329Z,9.80
2022-07-29T17:43:11.950Z,12.80
2022-07-29T17:45:50.430Z,10.10
2022-07-29T17:48:20.094Z,9.50
2022-07-29T17:50:49.410Z,8.70
2022-07-29T17:53:18.378Z,7.90
2022-07-29T17:55:48.910Z,7.10
2022-07-29T17:58:17.800Z,9.80
2022-07-29T18:00:46.406Z,8.80
2022-07-29T18:03:15.647Z,6.90
2022-07-29T18:05:44.605Z,6.50
2022-07-29T18:08:13.322Z,9.40
2022-07-29T18:10:42.253Z,6.90
2022-07-29T18:13:14.367Z,9.30
2022-07-29T18:15:45.235Z,7.10
2022-07-29T18:18:15.477Z,9.10
2022-07-29T18:20:44.650Z,11.50
2022-07-29T18:23:14.211Z,9.90
2022-07-29T18:25:43.025Z,10.40
2022-07-29T18:28:11.637Z,13.50
2022-07-29T18:30:40.195Z,11.30
2022-07-29T18:33:22.873Z,11.70
2022-07-29T18:36:10.598Z,12.00
2022-07-29T18:38:41.456Z,11.80
2022-07-29T18:41:10.675Z,12.50
2022-07-29T18:43:39.399Z,10.30
2022-07-29T18:46:08.162Z,12.30
2022-07-29T18:48:36.942Z,12.20
2022-07-29T18:51:09.044Z,9.20
2022-07-29T18:53:38.399Z,9.70
2022-07-29T18:56:06.988Z,12.30
2022-07-29T18:58:37.252Z,11.60
2022-07-29T19:01:06.784Z,16.50
2022-07-29T19:03:35.903Z,20.80
2022-07-29T19:06:04.926Z,27.90
2022-07-29T19:08:33.687Z,21.40
2022-07-29T19:11:02.430Z,18.60
2022-07-29T19:13:31.430Z,16.30
2022-07-29T19:16:00.017Z,15.10
2022-07-29T19:18:28.740Z,14.70
2022-07-29T19:20:57.555Z,16.40
2022-07-29T19:23:26.095Z,12.00
2022-07-29T19:25:54.926Z,13.80
2022-07-29T19:28:23.721Z,10.20
2022-07-29T19:30:52.706Z,14.00
2022-07-29T19:33:21.413Z,13.30
2022-07-29T19:35:54.611Z,11.80
2022-07-29T19:38:24.082Z,11.30
2022-07-29T19:40:56.905Z,8.70
2022-07-29T19:43:50.452Z,7.40
2022-07-29T19:46:14.229Z,6.30
2022-07-29T19:48:43.086Z,6.10
2022-07-29T19:51:11.977Z,6.60
2022-07-29T19:53:41.005Z,7.10
2022-07-29T19:56:09.844Z,7.00
2022-07-29T19:58:39.380Z,5.70
2022-07-29T20:01:14.683Z,10.60
2022-07-29T20:03:45.017Z,6.20
2022-07-29T20:06:14.059Z,8.20
2022-07-29T20:08:43.127Z,8.10
2022-07-29T20:11:11.744Z,8.60
2022-07-29T20:13:40.528Z,6.80
2022-07-29T20:16:09.256Z,8.40
2022-07-29T20:18:38.018Z,8.60
2022-07-29T20:21:06.735Z,8.40
2022-07-29T20:23:35.406Z,8.00
2022-07-29T20:26:09.395Z,8.10
2022-07-29T20:28:40.454Z,9.90
2022-07-29T20:31:09.610Z,9.50
2022-07-29T20:33:38.280Z,8.10
2022-07-29T20:36:07.203Z,9.20
2022-07-29T20:38:36.122Z,10.90
2022-07-29T20:41:05.357Z,11.80
2022-07-29T20:43:36.014Z,12.50
2022-07-29T20:46:07.722Z,11.00
2022-07-29T20:48:36.386Z,9.60
2022-07-29T20:51:04.956Z,9.60
2022-07-29T20:53:33.967Z,12.40
2022-07-29T20:56:02.502Z,15.00
2022-07-29T20:58:32.592Z,9.30
2022-07-29T21:01:02.039Z,12.60
2022-07-29T21:03:30.983Z,10.20
2022-07-29T21:06:00.425Z,9.60
2022-07-29T21:08:29.144Z,8.80
2022-07-29T21:10:57.949Z,8.80
2022-07-29T21:13:26.707Z,8.20
2022-07-29T21:16:00.011Z,9.50
2022-07-29T21:18:33.249Z,10.70
2022-07-29T21:21:01.927Z,11.00
2022-07-29T21:23:31.001Z,10.00
2022-07-29T21:26:00.219Z,8.20
2022-07-29T21:28:36.977Z,9.00
2022-07-29T21:31:12.717Z,9.80
2022-07-29T21:33:46.392Z,10.30
2022-07-29T21:36:46.748Z,10.50
2022-07-29T21:39:07.397Z,10.10
2022-07-29T21:41:36.209Z,7.90
2022-07-29T21:44:04.831Z,10.40
2022-07-29T21:46:33.503Z,8.20
2022-07-29T21:49:02.285Z,10.60
2022-07-29T21:51:30.898Z,8.30
2022-07-29T21:53:59.515Z,9.80
2022-07-29T21:56:30.275Z,9.80
2022-07-29T21:59:00.012Z,9.00
2022-07-29T22:01:28.513Z,10.00
2022-07-29T22:04:07.695Z,9.90
2022-07-29T22:06:36.779Z,9.50
2022-07-29T22:09:05.801Z,9.20
2022-07-29T22:11:36.727Z,8.60
2022-07-29T22:14:07.466Z,9.50
2022-07-29T22:16:36.264Z,10.40
2022-07-29T22:19:05.002Z,8.80
2022-07-29T22:21:33.624Z,9.70
2022-07-29T22:24:02.347Z,9.90
2022-07-29T22:26:31.271Z,8.70
2022-07-29T22:28:59.771Z,10.50
2022-07-29T22:31:28.521Z,8.50
2022-07-29T22:33:57.042Z,8.70
2022-07-29T22:36:27.143Z,8.70
2022-07-29T22:38:55.885Z,8.20
2022-07-29T22:41:24.513Z,8.00
2022-07-29T22:43:53.036Z,8.60
2022-07-29T22:46:22.525Z,8.20
2022-07-29T22:48:51.226Z,11.20
2022-07-29T22:51:19.720Z,8.30
2022-07-29T22:53:48.323Z,8.20
2022-07-29T22:56:17.749Z,9.80
2022-07-29T22:58:46.677Z,8.70
2022-07-29T23:01:16.794Z,8.70
2022-07-29T23:04:06.825Z,9.20
2022-07-29T23:06:35.518Z,11.50
2022-07-29T23:09:04.927Z,9.40
2022-07-29T23:11:33.568Z,10.00
2022-07-29T23:14:02.188Z,11.10
2022-07-29T23:16:30.786Z,11.80
2022-07-29T23:18:59.536Z,14.30
2022-07-29T23:21:28.151Z,12.70
2022-07-29T23:23:56.679Z,13.00
2022-07-29T23:26:25.271Z,12.80
2022-07-29T23:28:53.826Z,12.00
2022-07-29T23:31:22.339Z,13.00
2022-07-29T23:33:50.963Z,16.00
2022-07-29T23:36:21.089Z,12.10
2022-07-29T23:38:49.812Z,14.10
2022-07-29T23:41:18.432Z,11.90
2022-07-29T23:43:49.497Z,11.00
2022-07-29T23:46:18.158Z,11.50
2022-07-29T23:48:52.682Z,12.10
2022-07-29T23:51:21.857Z,11.10
2022-07-29T23:53:53.313Z,10.90
2022-07-29T23:56:23.010Z,12.90
2022-07-29T23:58:51.739Z,12.20
